createdAt,value
2019-03-26T00:02:17.165Z,43.00
2019-03-26T00:05:21.012Z,48.63
2019-03-26T00:08:24.867Z,51.50
2019-03-26T00:11:28.786Z,48.93
2019-03-26T00:14:32.588Z,51.50
2019-03-26T00:17:36.461Z,46.73
2019-03-26T00:20:40.507Z,53.00
2019-03-26T00:23:44.385Z,50.20
2019-03-26T00:26:48.211Z,52.43
2019-03-26T00:29:52.081Z,60.03
2019-03-26T00:32:55.940Z,48.93
2019-03-26T00:35:59.842Z,49.77
2019-03-26T00:39:04.796Z,52.03
2019-03-26T00:42:08.676Z,48.63
2019-03-26T00:45:12.619Z,49.27
2019-03-26T00:48:16.538Z,49.73
2019-03-26T00:51:20.654Z,46.47
2019-03-26T00:54:24.529Z,49.57
2019-03-26T00:57:28.371Z,55.70
2019-03-26T01:00:40.631Z,56.30
2019-03-26T01:03:44.461Z,52.43
2019-03-26T01:06:48.325Z,55.30
2019-03-26T01:09:52.159Z,58.00
2019-03-26T01:12:56.122Z,57.80
2019-03-26T01:16:00.001Z,57.90
2019-03-26T01:19:03.891Z,59.47
2019-03-26T01:22:08.101Z,59.00
2019-03-26T01:25:11.950Z,63.33
2019-03-26T01:28:15.784Z,60.33
2019-03-26T01:31:19.673Z,62.57
2019-03-26T01:34:23.540Z,57.20
2019-03-26T01:37:27.410Z,62.93
2019-03-26T01:40:31.269Z,71.10
2019-03-26T01:43:35.150Z,65.33
2019-03-26T01:46:39.031Z,64.53
2019-03-26T01:49:42.865Z,60.57
2019-03-26T01:52:46.689Z,64.37
2019-03-26T01:55:50.594Z,63.47
2019-03-26T01:58:54.420Z,62.90
2019-03-26T02:01:58.320Z,67.60
2019-03-26T02:05:02.126Z,77.73
2019-03-26T02:08:06.032Z,75.13
2019-03-26T02:11:09.851Z,77.63
2019-03-26T02:14:13.712Z,68.83
2019-03-26T02:17:17.542Z,79.93
2019-03-26T02:20:21.441Z,67.93
2019-03-26T02:23:25.259Z,76.90
2019-03-26T02:26:29.141Z,69.80
2019-03-26T02:29:32.992Z,78.17
2019-03-26T02:32:36.848Z,68.80
2019-03-26T02:35:40.665Z,68.03
2019-03-26T02:38:44.551Z,67.50
2019-03-26T02:41:48.433Z,61.73
2019-03-26T02:44:52.373Z,60.17
2019-03-26T02:47:56.235Z,64.83
2019-03-26T02:51:00.118Z,64.87
2019-03-26T02:54:03.943Z,67.17
2019-03-26T02:57:07.806Z,64.60
2019-03-26T03:00:11.926Z,60.50
2019-03-26T03:03:15.803Z,66.33
2019-03-26T03:06:19.623Z,70.33
2019-03-26T03:09:23.496Z,68.20
2019-03-26T03:12:27.365Z,63.80
2019-03-26T03:15:31.277Z,70.90
2019-03-26T03:18:35.146Z,68.03
2019-03-26T03:21:39.026Z,71.00
2019-03-26T03:24:42.841Z,64.20
2019-03-26T03:27:46.721Z,59.37
2019-03-26T03:30:50.571Z,60.23
2019-03-26T03:33:54.457Z,64.47
2019-03-26T03:36:58.324Z,60.10
2019-03-26T03:40:02.195Z,69.40
2019-03-26T03:43:06.128Z,56.97
2019-03-26T03:46:10.004Z,65.33
2019-03-26T03:49:14.710Z,58.23
2019-03-26T03:52:20.021Z,60.90
2019-03-26T03:55:23.847Z,60.03
2019-03-26T03:58:29.779Z,61.13
2019-03-26T04:01:33.672Z,60.17
2019-03-26T04:04:37.524Z,58.80
2019-03-26T04:07:41.473Z,65.40
2019-03-26T04:10:45.410Z,66.80
2019-03-26T04:13:49.246Z,67.77
2019-03-26T04:16:53.157Z,67.63
2019-03-26T04:19:58.513Z,71.67
2019-03-26T04:23:02.429Z,67.87
2019-03-26T04:26:06.251Z,69.00
2019-03-26T04:29:10.191Z,66.17
2019-03-26T04:32:14.027Z,65.73
2019-03-26T04:35:17.927Z,64.57
2019-03-26T04:38:21.750Z,58.90
2019-03-26T04:41:25.604Z,61.17
2019-03-26T04:44:29.431Z,61.17
2019-03-26T04:47:33.297Z,60.20
2019-03-26T04:50:37.141Z,58.37
2019-03-26T04:53:40.995Z,60.20
2019-03-26T04:56:44.831Z,61.37
2019-03-26T04:59:48.911Z,58.40
2019-03-26T05:02:52.781Z,63.80
2019-03-26T05:05:56.625Z,65.67
2019-03-26T05:09:00.486Z,66.33
2019-03-26T05:12:04.453Z,65.80
2019-03-26T05:15:09.130Z,66.83
2019-03-26T05:18:12.975Z,64.33
2019-03-26T05:21:16.810Z,66.53
2019-03-26T05:24:20.696Z,63.63
2019-03-26T05:27:25.000Z,64.40
2019-03-26T05:30:29.058Z,57.60
2019-03-26T05:33:32.946Z,55.93
2019-03-26T05:36:36.849Z,54.93
2019-03-26T05:39:40.706Z,59.50
2019-03-26T05:42:44.579Z,57.83
2019-03-26T05:45:48.428Z,51.30
2019-03-26T05:48:52.316Z,55.97
2019-03-26T05:51:56.160Z,56.13
2019-03-26T05:55:00.032Z,68.90
2019-03-26T05:58:03.869Z,58.90
2019-03-26T06:01:07.814Z,61.40
2019-03-26T06:04:11.648Z,62.33
2019-03-26T06:07:15.545Z,69.37
2019-03-26T06:10:19.382Z,73.30
2019-03-26T06:13:23.263Z,71.13
2019-03-26T06:16:37.841Z,65.90
2019-03-26T06:19:32.708Z,77.13
2019-03-26T06:22:36.526Z,71.13
2019-03-26T06:25:40.381Z,73.97
2019-03-26T06:28:45.061Z,60.87
2019-03-26T06:31:48.948Z,74.53
2019-03-26T06:34:53.092Z,69.83
2019-03-26T06:37:56.992Z,63.70
2019-03-26T06:41:00.812Z,63.93
2019-03-26T06:44:04.732Z,59.17
2019-03-26T06:47:08.560Z,57.90
2019-03-26T06:50:12.887Z,59.87
2019-03-26T06:53:16.960Z,66.10
2019-03-26T06:56:20.861Z,61.67
2019-03-26T06:59:24.729Z,67.03
2019-03-26T07:02:28.586Z,65.30
2019-03-26T07:05:32.456Z,63.77
2019-03-26T07:08:36.329Z,65.77
2019-03-26T07:11:40.193Z,66.33
2019-03-26T07:14:44.061Z,62.13
2019-03-26T07:17:47.892Z,58.10
2019-03-26T07:20:51.728Z,65.07
2019-03-26T07:23:55.575Z,54.97
2019-03-26T07:26:59.450Z,56.77
2019-03-26T07:30:03.363Z,57.10
2019-03-26T07:33:07.355Z,60.97
2019-03-26T07:36:11.174Z,53.73
2019-03-26T07:39:15.063Z,49.60
2019-03-26T07:42:18.899Z,42.20
2019-03-26T07:45:22.759Z,44.93
2019-03-26T07:48:26.605Z,39.43
2019-03-26T07:51:30.530Z,36.03
2019-03-26T07:54:34.367Z,37.27
2019-03-26T07:57:38.349Z,38.10
2019-03-26T08:00:42.291Z,44.90
2019-03-26T08:03:46.221Z,42.07
2019-03-26T08:06:50.048Z,41.90
2019-03-26T08:09:53.957Z,34.67
2019-03-26T08:12:57.946Z,35.10
2019-03-26T08:16:01.785Z,35.77
2019-03-26T08:19:05.631Z,36.97
2019-03-26T08:22:09.546Z,38.90
2019-03-26T08:25:13.385Z,36.70
2019-03-26T08:28:17.521Z,36.17
2019-03-26T08:31:22.312Z,32.87
2019-03-26T08:34:26.465Z,26.00
2019-03-26T08:37:30.762Z,33.70
2019-03-26T08:40:35.483Z,27.00
2019-03-26T08:43:41.131Z,22.73
2019-03-26T08:46:46.675Z,20.37
2019-03-26T08:49:51.237Z,24.57
2019-03-26T08:52:58.337Z,22.57
2019-03-26T08:56:02.869Z,21.47
2019-03-26T08:59:07.429Z,22.80
2019-03-26T09:02:11.311Z,17.23
2019-03-26T09:05:15.659Z,15.17
2019-03-26T09:08:25.308Z,15.00
2019-03-26T09:11:25.041Z,14.63
2019-03-26T09:14:28.882Z,14.40
2019-03-26T09:17:32.771Z,13.60
2019-03-26T09:20:36.603Z,17.23
2019-03-26T09:23:40.492Z,18.40
2019-03-26T09:26:44.327Z,23.00
2019-03-26T09:29:48.218Z,21.67
2019-03-26T09:32:52.053Z,15.00
2019-03-26T09:35:55.959Z,13.83
2019-03-26T09:38:59.888Z,18.70
2019-03-26T09:42:04.099Z,15.20
2019-03-26T09:45:10.848Z,17.43
2019-03-26T09:48:15.451Z,12.07
2019-03-26T09:51:19.563Z,11.00
2019-03-26T09:54:24.336Z,11.17
2019-03-26T09:57:28.778Z,13.83
2019-03-26T10:00:33.200Z,14.20
2019-03-26T10:03:37.714Z,19.03
2019-03-26T10:06:42.035Z,19.13
2019-03-26T10:09:46.479Z,23.60
2019-03-26T10:12:50.810Z,26.93
2019-03-26T10:15:55.102Z,32.00
2019-03-26T10:18:59.940Z,26.70
2019-03-26T10:22:04.419Z,20.57
2019-03-26T10:25:10.949Z,20.37
2019-03-26T10:28:14.729Z,19.00
2019-03-26T10:31:19.115Z,19.13
2019-03-26T10:34:26.112Z,18.43
2019-03-26T10:37:30.639Z,15.40
2019-03-26T10:40:37.536Z,20.40
2019-03-26T10:43:41.686Z,21.23
2019-03-26T10:46:45.934Z,17.97
2019-03-26T10:49:50.271Z,19.90
2019-03-26T10:52:54.597Z,20.13
2019-03-26T10:55:59.011Z,18.17
2019-03-26T10:59:04.301Z,18.43
2019-03-26T11:02:10.134Z,19.20
2019-03-26T11:05:14.877Z,23.37
2019-03-26T11:08:19.112Z,24.50
2019-03-26T11:11:23.592Z,21.87
2019-03-26T11:14:27.453Z,21.93
2019-03-26T11:17:31.967Z,19.73
2019-03-26T11:20:36.441Z,23.33
2019-03-26T11:23:40.464Z,25.80
2019-03-26T11:26:45.069Z,22.70
2019-03-26T11:29:49.438Z,23.83
2019-03-26T11:32:53.818Z,20.63
2019-03-26T11:35:58.429Z,20.10
2019-03-26T11:39:02.966Z,20.60
2019-03-26T11:42:07.383Z,17.57
2019-03-26T11:45:12.255Z,19.70
2019-03-26T11:48:16.131Z,18.80
2019-03-26T11:51:19.986Z,18.23
2019-03-26T11:54:23.885Z,14.83
2019-03-26T11:57:27.748Z,15.07
2019-03-26T12:00:33.192Z,15.27
2019-03-26T12:03:37.077Z,18.43
2019-03-26T12:06:40.922Z,20.40
2019-03-26T12:09:46.407Z,15.60
2019-03-26T12:12:50.381Z,17.40
2019-03-26T12:15:54.242Z,15.87
2019-03-26T12:18:58.220Z,21.43
2019-03-26T12:22:02.114Z,18.67
2019-03-26T12:25:07.007Z,16.90
2019-03-26T12:28:10.833Z,15.07
2019-03-26T12:31:14.769Z,14.37
2019-03-26T12:34:18.574Z,15.33
2019-03-26T12:37:22.492Z,18.47
2019-03-26T12:40:26.436Z,12.93
2019-03-26T12:43:32.140Z,11.07
2019-03-26T12:46:35.941Z,15.67
2019-03-26T12:49:39.812Z,16.33
2019-03-26T12:52:43.683Z,16.20
2019-03-26T12:55:49.271Z,15.07
2019-03-26T12:58:53.545Z,16.33
2019-03-26T13:01:57.410Z,15.27
2019-03-26T13:05:01.281Z,17.53
2019-03-26T13:08:05.170Z,13.80
2019-03-26T13:11:09.101Z,14.70
2019-03-26T13:14:12.958Z,13.67
2019-03-26T13:17:16.908Z,13.30
2019-03-26T13:20:20.713Z,15.40
2019-03-26T13:23:24.582Z,12.47
2019-03-26T13:26:28.461Z,15.60
2019-03-26T13:29:32.298Z,12.53
2019-03-26T13:32:36.211Z,16.10
2019-03-26T13:35:40.061Z,13.43
2019-03-26T13:38:44.006Z,15.77
2019-03-26T13:41:47.823Z,11.80
2019-03-26T13:44:52.160Z,15.10
2019-03-26T13:47:55.940Z,12.83
2019-03-26T13:50:59.822Z,14.77
2019-03-26T13:54:03.733Z,14.43
2019-03-26T13:57:07.641Z,13.17
2019-03-26T14:00:12.155Z,16.80
2019-03-26T14:03:16.542Z,12.87
2019-03-26T14:06:20.412Z,15.27
2019-03-26T14:09:24.277Z,17.70
2019-03-26T14:12:28.151Z,22.53
2019-03-26T14:15:32.011Z,13.20
2019-03-26T14:18:35.865Z,11.50
2019-03-26T14:21:39.856Z,13.13
2019-03-26T14:24:43.668Z,12.17
2019-03-26T14:27:47.584Z,9.80
2019-03-26T14:30:51.426Z,10.43
2019-03-26T14:33:55.347Z,11.73
2019-03-26T14:36:59.246Z,12.87
2019-03-26T14:40:03.090Z,11.77
2019-03-26T14:43:07.193Z,10.47
2019-03-26T14:46:11.038Z,9.50
2019-03-26T14:49:14.932Z,10.77
2019-03-26T14:52:18.765Z,10.77
2019-03-26T14:55:22.642Z,14.20
2019-03-26T14:58:26.574Z,9.77
2019-03-26T15:01:30.451Z,13.67
2019-03-26T15:04:34.301Z,16.20
2019-03-26T15:07:38.161Z,17.43
2019-03-26T15:10:42.012Z,15.73
2019-03-26T15:13:49.233Z,14.53
2019-03-26T15:16:51.391Z,15.10
2019-03-26T15:19:55.524Z,19.77
2019-03-26T15:22:59.426Z,16.67
2019-03-26T15:26:03.364Z,15.23
2019-03-26T15:29:07.216Z,35.70
2019-03-26T15:32:11.086Z,18.17
2019-03-26T15:35:15.126Z,14.13
2019-03-26T15:38:19.021Z,14.90
2019-03-26T15:41:22.864Z,13.30
2019-03-26T15:44:26.745Z,17.00
2019-03-26T15:47:30.616Z,18.17
2019-03-26T15:50:42.536Z,19.47
2019-03-26T15:53:46.344Z,13.93
2019-03-26T15:56:50.263Z,16.83
2019-03-26T15:59:54.091Z,20.03
2019-03-26T16:02:58.190Z,25.17
2019-03-26T16:06:02.037Z,20.40
2019-03-26T16:09:08.362Z,24.37
2019-03-26T16:12:12.241Z,21.70
2019-03-26T16:15:16.318Z,17.37
2019-03-26T16:18:20.167Z,12.80
2019-03-26T16:21:24.017Z,15.83
2019-03-26T16:24:27.896Z,16.80
2019-03-26T16:27:31.732Z,16.90
2019-03-26T16:30:35.639Z,13.03
2019-03-26T16:33:39.465Z,19.80
2019-03-26T16:36:43.351Z,18.63
2019-03-26T16:39:47.241Z,19.23
2019-03-26T16:42:51.087Z,19.00
2019-03-26T16:45:54.971Z,17.93
2019-03-26T16:48:59.081Z,19.53
2019-03-26T16:52:02.950Z,17.87
2019-03-26T16:55:07.830Z,28.07
2019-03-26T16:58:11.679Z,20.80
2019-03-26T17:01:15.591Z,22.80
2019-03-26T17:04:19.441Z,24.30
2019-03-26T17:07:23.385Z,25.97
2019-03-26T17:10:27.198Z,26.80
2019-03-26T17:13:31.074Z,19.93
2019-03-26T17:16:34.978Z,23.60
2019-03-26T17:19:38.851Z,19.60
2019-03-26T17:22:42.714Z,22.67
2019-03-26T17:25:46.551Z,20.27
2019-03-26T17:28:50.434Z,29.07
2019-03-26T17:31:54.371Z,23.07
2019-03-26T17:34:58.221Z,22.43
2019-03-26T17:38:02.089Z,20.27
2019-03-26T17:41:06.001Z,22.30
2019-03-26T17:44:09.897Z,29.60
2019-03-26T17:47:13.726Z,31.37
2019-03-26T17:50:18.136Z,44.87
2019-03-26T17:53:22.028Z,36.20
2019-03-26T17:56:25.906Z,27.10
2019-03-26T17:59:29.803Z,26.47
2019-03-26T18:02:34.432Z,38.00
2019-03-26T18:05:38.410Z,36.87
2019-03-26T18:08:42.293Z,51.77
2019-03-26T18:11:46.217Z,37.90
2019-03-26T18:14:50.088Z,29.73
2019-03-26T18:17:54.089Z,25.80
2019-03-26T18:20:58.258Z,19.57
2019-03-26T18:24:02.161Z,23.07
2019-03-26T18:27:06.052Z,24.53
2019-03-26T18:30:10.216Z,38.93
2019-03-26T18:33:14.133Z,35.13
2019-03-26T18:36:17.997Z,62.13
2019-03-26T18:39:21.918Z,27.57
2019-03-26T18:42:26.567Z,37.63
2019-03-26T18:45:30.468Z,29.43
2019-03-26T18:48:34.295Z,26.20
2019-03-26T18:51:38.160Z,25.10
2019-03-26T18:54:42.058Z,31.10
2019-03-26T18:57:46.041Z,23.37
2019-03-26T19:00:49.878Z,33.07
2019-03-26T19:03:53.755Z,23.73
2019-03-26T19:06:57.695Z,35.93
2019-03-26T19:10:01.760Z,31.37
2019-03-26T19:13:18.704Z,34.73
2019-03-26T19:16:11.403Z,202.47
2019-03-26T19:19:29.270Z,20.50
2019-03-26T19:22:33.843Z,27.30
2019-03-26T19:25:37.754Z,17.17
2019-03-26T19:28:41.865Z,18.27
2019-03-26T19:31:45.975Z,21.30
2019-03-26T19:34:49.949Z,24.90
2019-03-26T19:37:53.874Z,25.13
2019-03-26T19:40:57.696Z,21.73
2019-03-26T19:44:01.706Z,22.93
2019-03-26T19:47:05.559Z,25.93
2019-03-26T19:50:09.649Z,18.00
2019-03-26T19:53:13.483Z,20.97
2019-03-26T19:56:17.553Z,19.93
2019-03-26T19:59:21.506Z,26.37
2019-03-26T20:02:26.036Z,28.33
2019-03-26T20:05:29.966Z,16.53
2019-03-26T20:08:33.879Z,19.73
2019-03-26T20:11:37.896Z,19.37
2019-03-26T20:14:41.751Z,25.13
2019-03-26T20:17:45.700Z,31.70
2019-03-26T20:20:49.611Z,24.63
2019-03-26T20:23:53.451Z,30.30
2019-03-26T20:26:57.351Z,32.77
2019-03-26T20:30:01.201Z,20.77
2019-03-26T20:33:05.207Z,15.43
2019-03-26T20:36:09.056Z,17.20
2019-03-26T20:39:12.976Z,16.97
2019-03-26T20:42:16.823Z,20.53
2019-03-26T20:45:20.926Z,21.73
2019-03-26T20:48:24.828Z,24.07
2019-03-26T20:51:28.836Z,19.33
2019-03-26T20:54:32.820Z,22.40
2019-03-26T20:57:36.893Z,21.03
2019-03-26T21:00:42.296Z,25.93
2019-03-26T21:03:47.224Z,25.20
2019-03-26T21:06:51.051Z,24.43
2019-03-26T21:09:54.966Z,23.67
2019-03-26T21:12:58.811Z,33.13
2019-03-26T21:16:12.169Z,27.20
2019-03-26T21:19:16.151Z,27.97
2019-03-26T21:22:20.140Z,26.90
2019-03-26T21:25:24.101Z,28.80
2019-03-26T21:28:28.000Z,26.07
2019-03-26T21:31:32.232Z,26.33
2019-03-26T21:34:36.429Z,24.20
2019-03-26T21:37:40.452Z,25.57
2019-03-26T21:40:47.218Z,25.93
2019-03-26T21:44:03.153Z,32.17
2019-03-26T21:46:55.467Z,25.17
2019-03-26T21:49:59.368Z,24.43
2019-03-26T21:53:03.376Z,25.10
2019-03-26T21:56:07.313Z,20.50
2019-03-26T21:59:11.125Z,23.23
2019-03-26T22:02:15.051Z,26.03
2019-03-26T22:05:18.958Z,19.67
2019-03-26T22:08:22.862Z,23.87
2019-03-26T22:11:26.726Z,26.13
2019-03-26T22:14:30.636Z,21.77
2019-03-26T22:17:34.862Z,26.57
2019-03-26T22:20:38.741Z,15.93
2019-03-26T22:23:42.624Z,18.73
2019-03-26T22:26:46.521Z,19.07
2019-03-26T22:29:50.344Z,20.10
2019-03-26T22:32:54.426Z,17.57
2019-03-26T22:35:58.252Z,12.43
2019-03-26T22:39:02.184Z,25.10
2019-03-26T22:42:05.996Z,16.03
2019-03-26T22:45:10.583Z,14.97
2019-03-26T22:48:14.446Z,21.67
2019-03-26T22:51:18.338Z,16.70
2019-03-26T22:54:22.236Z,18.87
2019-03-26T22:57:26.672Z,16.07
2019-03-26T23:00:32.052Z,17.83
2019-03-26T23:03:36.081Z,21.40
2019-03-26T23:06:39.893Z,18.33
2019-03-26T23:09:43.748Z,25.03
2019-03-26T23:12:47.678Z,20.20
2019-03-26T23:15:51.775Z,17.73
2019-03-26T23:18:55.678Z,19.30
2019-03-26T23:21:59.518Z,19.67
2019-03-26T23:25:03.455Z,15.70
2019-03-26T23:28:07.277Z,17.73
2019-03-26T23:31:11.149Z,15.17
2019-03-26T23:34:15.591Z,14.93
2019-03-26T23:37:19.448Z,17.40
2019-03-26T23:40:23.290Z,17.87
2019-03-26T23:43:27.179Z,14.77
2019-03-26T23:46:31.094Z,13.40
2019-03-26T23:49:34.921Z,17.53
2019-03-26T23:52:38.948Z,16.23
2019-03-26T23:55:42.817Z,18.87
2019-03-26T23:58:46.941Z,18.97
